sensor_id;sensor_type;location;lat;lon;timestamp;P1;durP1;ratioP1;P2;durP2;ratioP2
21814;SDS011;11069;48.988;8.450;2023-05-17T00:00:17;1.35;;;1.20;;
21814;SDS011;11069;48.988;8.450;2023-05-17T00:02:43;2.42;;;1.40;;
21814;SDS011;11069;48.988;8.450;2023-05-17T00:05:09;2.83;;;1.30;;
21814;SDS011;11069;48.988;8.450;2023-05-17T00:07:38;1.52;;;1.40;;
21814;SDS011;11069;48.988;8.450;2023-05-17T00:10:04;1.42;;;1.27;;
21814;SDS011;11069;48.988;8.450;2023-05-17T00:12:33;1.40;;;1.20;;
21814;SDS011;11069;48.988;8.450;2023-05-17T00:14:59;1.63;;;1.40;;
21814;SDS011;11069;48.988;8.450;2023-05-17T00:17:25;1.45;;;1.27;;
21814;SDS011;11069;48.988;8.450;2023-05-17T00:19:53;1.40;;;1.30;;
21814;SDS011;11069;48.988;8.450;2023-05-17T00:22:19;1.30;;;1.20;;
21814;SDS011;11069;48.988;8.450;2023-05-17T00:24:45;1.17;;;1.05;;
21814;SDS011;11069;48.988;8.450;2023-05-17T00:27:11;2.10;;;1.23;;
21814;SDS011;11069;48.988;8.450;2023-05-17T00:29:37;1.75;;;1.25;;
21814;SDS011;11069;48.988;8.450;2023-05-17T00:32:03;1.50;;;1.40;;
21814;SDS011;11069;48.988;8.450;2023-05-17T00:34:29;1.30;;;1.10;;
21814;SDS011;11069;48.988;8.450;2023-05-17T00:36:55;1.85;;;1.30;;
21814;SDS011;11069;48.988;8.450;2023-05-17T00:39:21;1.27;;;1.10;;
21814;SDS011;11069;48.988;8.450;2023-05-17T00:41:47;1.23;;;1.02;;
21814;SDS011;11069;48.988;8.450;2023-05-17T00:44:13;1.80;;;1.38;;
21814;SDS011;11069;48.988;8.450;2023-05-17T00:46:39;2.67;;;1.45;;
21814;SDS011;11069;48.988;8.450;2023-05-17T00:49:05;1.42;;;1.33;;
21814;SDS011;11069;48.988;8.450;2023-05-17T00:51:31;1.98;;;1.63;;
21814;SDS011;11069;48.988;8.450;2023-05-17T00:54:00;1.48;;;1.30;;
21814;SDS011;11069;48.988;8.450;2023-05-17T00:56:26;1.77;;;1.20;;
21814;SDS011;11069;48.988;8.450;2023-05-17T00:58:52;3.30;;;1.88;;
21814;SDS011;11069;48.988;8.450;2023-05-17T01:01:18;2.47;;;1.45;;
21814;SDS011;11069;48.988;8.450;2023-05-17T01:03:44;1.83;;;1.38;;
21814;SDS011;11069;48.988;8.450;2023-05-17T01:06:10;1.80;;;1.42;;
21814;SDS011;11069;48.988;8.450;2023-05-17T01:08:36;1.88;;;1.50;;
21814;SDS011;11069;48.988;8.450;2023-05-17T01:16:35;1.58;;;1.48;;
21814;SDS011;11069;48.988;8.450;2023-05-17T01:24:27;1.70;;;1.42;;
21814;SDS011;11069;48.988;8.450;2023-05-17T01:26:54;2.00;;;1.30;;
21814;SDS011;11069;48.988;8.450;2023-05-17T01:29:22;1.40;;;1.30;;
21814;SDS011;11069;48.988;8.450;2023-05-17T01:31:51;2.50;;;1.93;;
21814;SDS011;11069;48.988;8.450;2023-05-17T01:34:27;1.58;;;1.48;;
21814;SDS011;11069;48.988;8.450;2023-05-17T01:36:53;2.88;;;1.60;;
21814;SDS011;11069;48.988;8.450;2023-05-17T01:39:20;2.25;;;1.50;;
21814;SDS011;11069;48.988;8.450;2023-05-17T01:41:50;3.75;;;1.85;;
21814;SDS011;11069;48.988;8.450;2023-05-17T01:44:23;2.30;;;1.40;;
21814;SDS011;11069;48.988;8.450;2023-05-17T01:46:52;1.73;;;1.40;;
21814;SDS011;11069;48.988;8.450;2023-05-17T01:49:21;2.28;;;1.45;;
21814;SDS011;11069;48.988;8.450;2023-05-17T01:52:07;2.53;;;1.60;;
21814;SDS011;11069;48.988;8.450;2023-05-17T01:54:36;1.75;;;1.63;;
21814;SDS011;11069;48.988;8.450;2023-05-17T01:57:03;1.25;;;1.20;;
21814;SDS011;11069;48.988;8.450;2023-05-17T01:59:31;4.13;;;1.60;;
21814;SDS011;11069;48.988;8.450;2023-05-17T02:01:58;1.60;;;1.50;;
21814;SDS011;11069;48.988;8.450;2023-05-17T02:04:30;3.53;;;2.05;;
21814;SDS011;11069;48.988;8.450;2023-05-17T02:06:56;3.83;;;1.70;;
21814;SDS011;11069;48.988;8.450;2023-05-17T02:09:22;1.85;;;1.70;;
21814;SDS011;11069;48.988;8.450;2023-05-17T02:11:48;1.88;;;1.70;;
21814;SDS011;11069;48.988;8.450;2023-05-17T02:14:14;2.65;;;1.70;;
21814;SDS011;11069;48.988;8.450;2023-05-17T02:16:40;2.33;;;1.90;;
21814;SDS011;11069;48.988;8.450;2023-05-17T02:19:06;2.00;;;1.80;;
21814;SDS011;11069;48.988;8.450;2023-05-17T02:21:33;2.17;;;1.85;;
21814;SDS011;11069;48.988;8.450;2023-05-17T02:23:59;2.25;;;1.85;;
21814;SDS011;11069;48.988;8.450;2023-05-17T02:26:25;1.90;;;1.67;;
21814;SDS011;11069;48.988;8.450;2023-05-17T02:28:51;2.30;;;1.85;;
21814;SDS011;11069;48.988;8.450;2023-05-17T02:31:17;2.67;;;1.83;;
21814;SDS011;11069;48.988;8.450;2023-05-17T02:33:43;2.25;;;1.88;;
21814;SDS011;11069;48.988;8.450;2023-05-17T02:36:09;3.05;;;1.77;;
21814;SDS011;11069;48.988;8.450;2023-05-17T02:38:35;2.10;;;1.88;;
21814;SDS011;11069;48.988;8.450;2023-05-17T02:41:01;3.20;;;2.00;;
21814;SDS011;11069;48.988;8.450;2023-05-17T02:43:27;2.90;;;1.80;;
21814;SDS011;11069;48.988;8.450;2023-05-17T02:45:53;2.53;;;1.95;;
21814;SDS011;11069;48.988;8.450;2023-05-17T02:48:19;2.40;;;1.80;;
21814;SDS011;11069;48.988;8.450;2023-05-17T02:50:45;2.47;;;2.10;;
21814;SDS011;11069;48.988;8.450;2023-05-17T02:53:11;4.38;;;1.80;;
21814;SDS011;11069;48.988;8.450;2023-05-17T02:55:37;3.97;;;2.33;;
21814;SDS011;11069;48.988;8.450;2023-05-17T02:58:03;3.63;;;2.05;;
21814;SDS011;11069;48.988;8.450;2023-05-17T03:00:29;2.53;;;1.80;;
21814;SDS011;11069;48.988;8.450;2023-05-17T03:02:55;2.53;;;1.80;;
21814;SDS011;11069;48.988;8.450;2023-05-17T03:05:21;2.85;;;2.03;;
21814;SDS011;11069;48.988;8.450;2023-05-17T03:07:47;2.72;;;2.05;;
21814;SDS011;11069;48.988;8.450;2023-05-17T03:10:13;2.85;;;2.13;;
21814;SDS011;11069;48.988;8.450;2023-05-17T03:12:40;2.58;;;1.80;;
21814;SDS011;11069;48.988;8.450;2023-05-17T03:15:06;2.72;;;1.98;;
21814;SDS011;11069;48.988;8.450;2023-05-17T03:17:32;2.22;;;1.85;;
21814;SDS011;11069;48.988;8.450;2023-05-17T03:19:58;2.45;;;1.88;;
21814;SDS011;11069;48.988;8.450;2023-05-17T03:22:24;2.60;;;2.28;;
21814;SDS011;11069;48.988;8.450;2023-05-17T03:24:50;2.95;;;2.30;;
21814;SDS011;11069;48.988;8.450;2023-05-17T03:27:16;1.98;;;1.75;;
21814;SDS011;11069;48.988;8.450;2023-05-17T03:29:42;2.63;;;2.08;;
21814;SDS011;11069;48.988;8.450;2023-05-17T03:32:08;3.58;;;2.00;;
21814;SDS011;11069;48.988;8.450;2023-05-17T03:34:34;2.70;;;2.00;;
21814;SDS011;11069;48.988;8.450;2023-05-17T03:37:00;3.25;;;2.05;;
21814;SDS011;11069;48.988;8.450;2023-05-17T03:39:26;2.45;;;2.10;;
21814;SDS011;11069;48.988;8.450;2023-05-17T03:41:51;2.05;;;1.90;;
21814;SDS011;11069;48.988;8.450;2023-05-17T03:44:17;4.28;;;2.00;;
21814;SDS011;11069;48.988;8.450;2023-05-17T03:46:43;2.22;;;2.03;;
21814;SDS011;11069;48.988;8.450;2023-05-17T03:49:10;2.40;;;2.00;;
21814;SDS011;11069;48.988;8.450;2023-05-17T03:51:36;2.75;;;1.85;;
21814;SDS011;11069;48.988;8.450;2023-05-17T03:54:02;2.67;;;1.98;;
21814;SDS011;11069;48.988;8.450;2023-05-17T03:56:28;2.55;;;2.25;;
21814;SDS011;11069;48.988;8.450;2023-05-17T03:58:54;2.17;;;1.98;;
21814;SDS011;11069;48.988;8.450;2023-05-17T04:01:23;2.78;;;2.10;;
21814;SDS011;11069;48.988;8.450;2023-05-17T04:03:49;2.85;;;2.03;;
21814;SDS011;11069;48.988;8.450;2023-05-17T04:06:15;4.07;;;2.22;;
21814;SDS011;11069;48.988;8.450;2023-05-17T04:08:41;2.10;;;1.90;;
21814;SDS011;11069;48.988;8.450;2023-05-17T04:11:07;3.17;;;2.17;;
21814;SDS011;11069;48.988;8.450;2023-05-17T04:13:38;2.28;;;2.05;;
21814;SDS011;11069;48.988;8.450;2023-05-17T04:16:05;3.03;;;2.28;;
21814;SDS011;11069;48.988;8.450;2023-05-17T04:18:35;2.67;;;2.15;;
21814;SDS011;11069;48.988;8.450;2023-05-17T04:21:01;3.53;;;2.17;;
21814;SDS011;11069;48.988;8.450;2023-05-17T04:23:27;2.78;;;2.03;;
21814;SDS011;11069;48.988;8.450;2023-05-17T04:25:53;2.25;;;2.05;;
21814;SDS011;11069;48.988;8.450;2023-05-17T04:28:20;2.65;;;2.20;;
21814;SDS011;11069;48.988;8.450;2023-05-17T04:30:47;3.13;;;2.28;;
21814;SDS011;11069;48.988;8.450;2023-05-17T04:33:13;2.38;;;2.15;;
21814;SDS011;11069;48.988;8.450;2023-05-17T04:35:39;2.35;;;1.90;;
21814;SDS011;11069;48.988;8.450;2023-05-17T04:38:06;3.20;;;1.80;;
21814;SDS011;11069;48.988;8.450;2023-05-17T04:40:32;2.45;;;1.95;;
21814;SDS011;11069;48.988;8.450;2023-05-17T04:42:58;2.85;;;1.77;;
21814;SDS011;11069;48.988;8.450;2023-05-17T04:45:24;3.95;;;1.88;;
21814;SDS011;11069;48.988;8.450;2023-05-17T04:47:50;4.35;;;2.08;;
21814;SDS011;11069;48.988;8.450;2023-05-17T04:50:16;1.95;;;1.75;;
21814;SDS011;11069;48.988;8.450;2023-05-17T04:52:42;1.90;;;1.80;;
21814;SDS011;11069;48.988;8.450;2023-05-17T04:55:08;1.77;;;1.60;;
21814;SDS011;11069;48.988;8.450;2023-05-17T04:57:35;3.45;;;2.25;;
21814;SDS011;11069;48.988;8.450;2023-05-17T05:00:01;2.05;;;1.70;;
21814;SDS011;11069;48.988;8.450;2023-05-17T05:02:31;3.75;;;2.05;;
21814;SDS011;11069;48.988;8.450;2023-05-17T05:04:57;2.45;;;2.00;;
21814;SDS011;11069;48.988;8.450;2023-05-17T05:07:23;2.17;;;1.92;;
21814;SDS011;11069;48.988;8.450;2023-05-17T05:09:49;2.40;;;2.00;;
21814;SDS011;11069;48.988;8.450;2023-05-17T05:12:15;2.40;;;2.00;;
21814;SDS011;11069;48.988;8.450;2023-05-17T05:14:44;1.75;;;1.65;;
21814;SDS011;11069;48.988;8.450;2023-05-17T05:17:10;2.78;;;2.15;;
21814;SDS011;11069;48.988;8.450;2023-05-17T05:19:36;2.85;;;1.80;;
21814;SDS011;11069;48.988;8.450;2023-05-17T05:22:02;2.78;;;2.22;;
21814;SDS011;11069;48.988;8.450;2023-05-17T05:24:28;3.15;;;1.85;;
21814;SDS011;11069;48.988;8.450;2023-05-17T05:26:54;2.72;;;1.80;;
21814;SDS011;11069;48.988;8.450;2023-05-17T05:29:20;3.03;;;2.13;;
21814;SDS011;11069;48.988;8.450;2023-05-17T05:31:46;2.72;;;1.98;;
21814;SDS011;11069;48.988;8.450;2023-05-17T05:34:11;4.63;;;1.90;;
21814;SDS011;11069;48.988;8.450;2023-05-17T05:36:37;3.58;;;2.00;;
21814;SDS011;11069;48.988;8.450;2023-05-17T05:39:03;2.97;;;1.88;;
21814;SDS011;11069;48.988;8.450;2023-05-17T05:41:29;3.03;;;1.95;;
21814;SDS011;11069;48.988;8.450;2023-05-17T05:43:56;4.20;;;2.10;;
21814;SDS011;11069;48.988;8.450;2023-05-17T05:46:22;2.42;;;2.10;;
21814;SDS011;11069;48.988;8.450;2023-05-17T05:48:48;2.90;;;2.00;;
21814;SDS011;11069;48.988;8.450;2023-05-17T05:51:14;3.13;;;2.10;;
21814;SDS011;11069;48.988;8.450;2023-05-17T05:53:40;3.95;;;2.08;;
21814;SDS011;11069;48.988;8.450;2023-05-17T05:56:09;4.00;;;2.42;;
21814;SDS011;11069;48.988;8.450;2023-05-17T05:58:35;3.05;;;2.10;;
21814;SDS011;11069;48.988;8.450;2023-05-17T06:01:02;3.80;;;2.10;;
21814;SDS011;11069;48.988;8.450;2023-05-17T06:03:28;4.55;;;2.50;;
21814;SDS011;11069;48.988;8.450;2023-05-17T06:05:53;2.88;;;2.17;;
21814;SDS011;11069;48.988;8.450;2023-05-17T06:08:23;3.17;;;2.22;;
21814;SDS011;11069;48.988;8.450;2023-05-17T06:10:49;3.85;;;2.55;;
21814;SDS011;11069;48.988;8.450;2023-05-17T06:13:15;3.13;;;2.17;;
21814;SDS011;11069;48.988;8.450;2023-05-17T06:15:41;3.10;;;2.20;;
21814;SDS011;11069;48.988;8.450;2023-05-17T06:18:07;3.08;;;2.10;;
21814;SDS011;11069;48.988;8.450;2023-05-17T06:20:33;2.80;;;2.10;;
21814;SDS011;11069;48.988;8.450;2023-05-17T06:22:59;2.72;;;1.90;;
21814;SDS011;11069;48.988;8.450;2023-05-17T06:25:25;2.92;;;2.40;;
21814;SDS011;11069;48.988;8.450;2023-05-17T06:27:51;4.80;;;2.30;;
21814;SDS011;11069;48.988;8.450;2023-05-17T06:30:17;3.95;;;2.60;;
21814;SDS011;11069;48.988;8.450;2023-05-17T06:32:43;4.30;;;2.17;;
21814;SDS011;11069;48.988;8.450;2023-05-17T06:35:09;4.70;;;2.67;;
21814;SDS011;11069;48.988;8.450;2023-05-17T06:37:35;3.80;;;2.30;;
21814;SDS011;11069;48.988;8.450;2023-05-17T06:40:02;3.75;;;2.20;;
21814;SDS011;11069;48.988;8.450;2023-05-17T06:42:31;4.20;;;2.10;;
21814;SDS011;11069;48.988;8.450;2023-05-17T06:44:58;3.47;;;2.38;;
21814;SDS011;11069;48.988;8.450;2023-05-17T06:47:24;2.42;;;2.15;;
21814;SDS011;11069;48.988;8.450;2023-05-17T06:49:50;3.90;;;2.40;;
21814;SDS011;11069;48.988;8.450;2023-05-17T06:52:16;3.88;;;2.13;;
21814;SDS011;11069;48.988;8.450;2023-05-17T06:54:42;3.85;;;2.10;;
21814;SDS011;11069;48.988;8.450;2023-05-17T06:57:08;3.05;;;2.13;;
21814;SDS011;11069;48.988;8.450;2023-05-17T06:59:37;2.40;;;1.85;;
21814;SDS011;11069;48.988;8.450;2023-05-17T07:02:03;6.47;;;2.70;;
21814;SDS011;11069;48.988;8.450;2023-05-17T07:04:29;3.35;;;2.22;;
21814;SDS011;11069;48.988;8.450;2023-05-17T07:06:55;4.43;;;2.38;;
21814;SDS011;11069;48.988;8.450;2023-05-17T07:09:22;2.35;;;2.00;;
21814;SDS011;11069;48.988;8.450;2023-05-17T07:11:47;2.97;;;2.40;;
21814;SDS011;11069;48.988;8.450;2023-05-17T07:14:13;3.90;;;2.25;;
21814;SDS011;11069;48.988;8.450;2023-05-17T07:16:39;3.47;;;2.05;;
21814;SDS011;11069;48.988;8.450;2023-05-17T07:19:05;3.58;;;2.28;;
21814;SDS011;11069;48.988;8.450;2023-05-17T07:21:32;6.57;;;2.20;;
21814;SDS011;11069;48.988;8.450;2023-05-17T07:23:58;3.55;;;2.45;;
21814;SDS011;11069;48.988;8.450;2023-05-17T07:26:24;4.15;;;1.92;;
21814;SDS011;11069;48.988;8.450;2023-05-17T07:28:50;2.97;;;1.92;;
21814;SDS011;11069;48.988;8.450;2023-05-17T07:31:16;2.63;;;2.00;;
21814;SDS011;11069;48.988;8.450;2023-05-17T07:33:42;3.25;;;2.00;;
21814;SDS011;11069;48.988;8.450;2023-05-17T07:36:08;4.80;;;2.25;;
21814;SDS011;11069;48.988;8.450;2023-05-17T07:38:35;3.55;;;1.98;;
21814;SDS011;11069;48.988;8.450;2023-05-17T07:41:01;3.42;;;2.00;;
21814;SDS011;11069;48.988;8.450;2023-05-17T07:43:27;6.40;;;2.20;;
21814;SDS011;11069;48.988;8.450;2023-05-17T07:45:53;4.22;;;2.20;;
21814;SDS011;11069;48.988;8.450;2023-05-17T07:48:22;4.38;;;2.13;;
21814;SDS011;11069;48.988;8.450;2023-05-17T07:50:48;3.45;;;1.92;;
21814;SDS011;11069;48.988;8.450;2023-05-17T07:53:14;1.95;;;1.75;;
21814;SDS011;11069;48.988;8.450;2023-05-17T07:55:40;3.53;;;1.98;;
21814;SDS011;11069;48.988;8.450;2023-05-17T07:58:08;4.18;;;1.90;;
21814;SDS011;11069;48.988;8.450;2023-05-17T08:00:38;4.47;;;2.22;;
21814;SDS011;11069;48.988;8.450;2023-05-17T08:03:06;6.25;;;2.05;;
21814;SDS011;11069;48.988;8.450;2023-05-17T08:05:32;3.20;;;2.10;;
21814;SDS011;11069;48.988;8.450;2023-05-17T08:07:58;2.97;;;1.83;;
21814;SDS011;11069;48.988;8.450;2023-05-17T08:10:33;3.42;;;2.38;;
21814;SDS011;11069;48.988;8.450;2023-05-17T08:13:01;3.60;;;1.95;;
21814;SDS011;11069;48.988;8.450;2023-05-17T08:15:28;3.25;;;2.10;;
21814;SDS011;11069;48.988;8.450;2023-05-17T08:17:54;4.10;;;2.10;;
21814;SDS011;11069;48.988;8.450;2023-05-17T08:20:20;3.15;;;1.90;;
21814;SDS011;11069;48.988;8.450;2023-05-17T08:22:46;2.63;;;1.98;;
21814;SDS011;11069;48.988;8.450;2023-05-17T08:25:12;3.03;;;2.03;;
21814;SDS011;11069;48.988;8.450;2023-05-17T08:27:39;5.10;;;2.03;;
21814;SDS011;11069;48.988;8.450;2023-05-17T08:30:05;4.07;;;2.33;;
21814;SDS011;11069;48.988;8.450;2023-05-17T08:32:31;4.47;;;2.63;;
21814;SDS011;11069;48.988;8.450;2023-05-17T08:34:57;4.28;;;2.15;;
21814;SDS011;11069;48.988;8.450;2023-05-17T08:37:23;3.15;;;2.10;;
21814;SDS011;11069;48.988;8.450;2023-05-17T08:39:49;5.47;;;2.20;;
21814;SDS011;11069;48.988;8.450;2023-05-17T08:42:16;1.85;;;1.60;;
21814;SDS011;11069;48.988;8.450;2023-05-17T08:44:46;2.28;;;1.67;;
21814;SDS011;11069;48.988;8.450;2023-05-17T08:47:12;4.60;;;2.10;;
21814;SDS011;11069;48.988;8.450;2023-05-17T08:49:54;4.13;;;2.10;;
21814;SDS011;11069;48.988;8.450;2023-05-17T08:52:21;4.43;;;2.40;;
21814;SDS011;11069;48.988;8.450;2023-05-17T08:54:47;2.92;;;1.92;;
21814;SDS011;11069;48.988;8.450;2023-05-17T08:57:13;3.20;;;2.20;;
21814;SDS011;11069;48.988;8.450;2023-05-17T08:59:42;3.13;;;2.05;;
21814;SDS011;11069;48.988;8.450;2023-05-17T09:02:08;4.50;;;2.25;;
21814;SDS011;11069;48.988;8.450;2023-05-17T09:04:35;2.78;;;2.15;;
21814;SDS011;11069;48.988;8.450;2023-05-17T09:07:01;3.47;;;2.38;;
21814;SDS011;11069;48.988;8.450;2023-05-17T09:09:27;4.70;;;2.45;;
21814;SDS011;11069;48.988;8.450;2023-05-17T09:11:53;6.32;;;2.60;;
21814;SDS011;11069;48.988;8.450;2023-05-17T09:14:20;5.50;;;3.00;;
21814;SDS011;11069;48.988;8.450;2023-05-17T09:16:46;3.47;;;2.38;;
21814;SDS011;11069;48.988;8.450;2023-05-17T09:19:13;5.15;;;2.50;;
21814;SDS011;11069;48.988;8.450;2023-05-17T09:21:39;4.75;;;2.20;;
21814;SDS011;11069;48.988;8.450;2023-05-17T09:24:09;5.10;;;2.80;;
21814;SDS011;11069;48.988;8.450;2023-05-17T09:26:36;4.35;;;2.75;;
21814;SDS011;11069;48.988;8.450;2023-05-17T09:29:06;3.00;;;2.20;;
21814;SDS011;11069;48.988;8.450;2023-05-17T09:31:32;4.47;;;2.47;;
21814;SDS011;11069;48.988;8.450;2023-05-17T09:33:58;4.90;;;2.97;;
21814;SDS011;11069;48.988;8.450;2023-05-17T09:36:24;3.88;;;2.70;;
21814;SDS011;11069;48.988;8.450;2023-05-17T09:39:00;3.25;;;2.15;;
21814;SDS011;11069;48.988;8.450;2023-05-17T09:41:31;4.75;;;2.58;;
21814;SDS011;11069;48.988;8.450;2023-05-17T09:44:01;4.95;;;2.50;;
21814;SDS011;11069;48.988;8.450;2023-05-17T09:46:31;4.38;;;2.30;;
21814;SDS011;11069;48.988;8.450;2023-05-17T09:48:59;4.78;;;2.88;;
21814;SDS011;11069;48.988;8.450;2023-05-17T09:51:35;5.13;;;2.03;;
21814;SDS011;11069;48.988;8.450;2023-05-17T09:54:01;4.38;;;2.50;;
21814;SDS011;11069;48.988;8.450;2023-05-17T09:56:28;2.78;;;2.15;;
21814;SDS011;11069;48.988;8.450;2023-05-17T09:58:55;2.63;;;2.05;;
21814;SDS011;11069;48.988;8.450;2023-05-17T10:01:26;3.63;;;2.30;;
21814;SDS011;11069;48.988;8.450;2023-05-17T10:03:52;2.97;;;2.03;;
21814;SDS011;11069;48.988;8.450;2023-05-17T10:06:20;3.60;;;2.20;;
21814;SDS011;11069;48.988;8.450;2023-05-17T10:08:50;2.95;;;1.92;;
21814;SDS011;11069;48.988;8.450;2023-05-17T10:11:17;4.00;;;2.10;;
21814;SDS011;11069;48.988;8.450;2023-05-17T10:13:48;3.40;;;2.15;;
21814;SDS011;11069;48.988;8.450;2023-05-17T10:16:18;3.55;;;2.25;;
21814;SDS011;11069;48.988;8.450;2023-05-17T10:18:46;3.20;;;2.00;;
21814;SDS011;11069;48.988;8.450;2023-05-17T10:21:12;3.60;;;2.05;;
21814;SDS011;11069;48.988;8.450;2023-05-17T10:23:38;3.45;;;1.90;;
21814;SDS011;11069;48.988;8.450;2023-05-17T10:26:08;2.85;;;2.17;;
21814;SDS011;11069;48.988;8.450;2023-05-17T10:28:35;4.35;;;1.80;;
21814;SDS011;11069;48.988;8.450;2023-05-17T10:31:02;3.13;;;2.20;;
21814;SDS011;11069;48.988;8.450;2023-05-17T10:33:29;3.13;;;1.95;;
21814;SDS011;11069;48.988;8.450;2023-05-17T10:35:57;3.35;;;2.05;;
21814;SDS011;11069;48.988;8.450;2023-05-17T10:38:23;3.22;;;1.95;;
21814;SDS011;11069;48.988;8.450;2023-05-17T10:40:50;2.25;;;1.80;;
21814;SDS011;11069;48.988;8.450;2023-05-17T10:43:17;4.15;;;2.08;;
21814;SDS011;11069;48.988;8.450;2023-05-17T10:45:43;2.85;;;2.05;;
21814;SDS011;11069;48.988;8.450;2023-05-17T10:48:24;2.42;;;2.15;;
21814;SDS011;11069;48.988;8.450;2023-05-17T10:51:03;3.33;;;2.00;;
21814;SDS011;11069;48.988;8.450;2023-05-17T10:53:33;4.20;;;1.77;;
21814;SDS011;11069;48.988;8.450;2023-05-17T10:56:04;4.82;;;2.15;;
21814;SDS011;11069;48.988;8.450;2023-05-17T10:58:31;3.30;;;1.95;;
21814;SDS011;11069;48.988;8.450;2023-05-17T11:00:57;2.85;;;2.05;;
21814;SDS011;11069;48.988;8.450;2023-05-17T11:03:26;4.40;;;1.92;;
21814;SDS011;11069;48.988;8.450;2023-05-17T11:08:44;5.38;;;2.70;;
21814;SDS011;11069;48.988;8.450;2023-05-17T11:11:12;3.17;;;1.90;;
21814;SDS011;11069;48.988;8.450;2023-05-17T11:13:46;3.50;;;2.10;;
21814;SDS011;11069;48.988;8.450;2023-05-17T11:16:15;2.00;;;1.63;;
21814;SDS011;11069;48.988;8.450;2023-05-17T11:18:45;3.90;;;1.90;;
21814;SDS011;11069;48.988;8.450;2023-05-17T11:21:14;2.53;;;1.90;;
21814;SDS011;11069;48.988;8.450;2023-05-17T11:23:43;2.75;;;2.00;;
21814;SDS011;11069;48.988;8.450;2023-05-17T11:26:15;2.72;;;1.88;;
21814;SDS011;11069;48.988;8.450;2023-05-17T11:28:41;3.08;;;2.05;;
21814;SDS011;11069;48.988;8.450;2023-05-17T11:31:07;3.53;;;2.25;;
21814;SDS011;11069;48.988;8.450;2023-05-17T11:33:37;3.22;;;2.00;;
21814;SDS011;11069;48.988;8.450;2023-05-17T11:36:12;5.97;;;2.63;;
21814;SDS011;11069;48.988;8.450;2023-05-17T11:38:39;2.70;;;1.73;;
21814;SDS011;11069;48.988;8.450;2023-05-17T11:41:21;4.22;;;2.20;;
21814;SDS011;11069;48.988;8.450;2023-05-17T11:43:47;3.17;;;2.03;;
21814;SDS011;11069;48.988;8.450;2023-05-17T11:46:20;3.67;;;2.45;;
21814;SDS011;11069;48.988;8.450;2023-05-17T11:48:46;2.15;;;1.67;;
21814;SDS011;11069;48.988;8.450;2023-05-17T11:51:14;4.35;;;2.03;;
21814;SDS011;11069;48.988;8.450;2023-05-17T11:53:40;2.65;;;1.67;;
21814;SDS011;11069;48.988;8.450;2023-05-17T11:56:07;3.80;;;1.75;;
21814;SDS011;11069;48.988;8.450;2023-05-17T11:58:35;2.33;;;1.63;;
21814;SDS011;11069;48.988;8.450;2023-05-17T12:01:01;3.58;;;1.65;;
21814;SDS011;11069;48.988;8.450;2023-05-17T12:03:29;4.00;;;1.77;;
21814;SDS011;11069;48.988;8.450;2023-05-17T12:06:05;1.58;;;1.40;;
21814;SDS011;11069;48.988;8.450;2023-05-17T12:08:33;3.35;;;2.08;;
21814;SDS011;11069;48.988;8.450;2023-05-17T12:10:59;2.45;;;1.60;;
21814;SDS011;11069;48.988;8.450;2023-05-17T12:13:27;3.20;;;1.85;;
21814;SDS011;11069;48.988;8.450;2023-05-17T12:15:55;3.42;;;2.00;;
21814;SDS011;11069;48.988;8.450;2023-05-17T12:18:21;2.80;;;1.90;;
21814;SDS011;11069;48.988;8.450;2023-05-17T12:20:56;3.10;;;1.95;;
21814;SDS011;11069;48.988;8.450;2023-05-17T12:23:27;2.67;;;1.90;;
21814;SDS011;11069;48.988;8.450;2023-05-17T12:26:12;3.08;;;2.20;;
21814;SDS011;11069;48.988;8.450;2023-05-17T12:28:40;3.97;;;2.20;;
21814;SDS011;11069;48.988;8.450;2023-05-17T12:31:08;2.58;;;1.63;;
21814;SDS011;11069;48.988;8.450;2023-05-17T12:33:35;3.97;;;2.10;;
21814;SDS011;11069;48.988;8.450;2023-05-17T12:36:03;3.20;;;2.05;;
21814;SDS011;11069;48.988;8.450;2023-05-17T12:38:30;2.47;;;1.92;;
21814;SDS011;11069;48.988;8.450;2023-05-17T12:41:03;3.72;;;1.80;;
21814;SDS011;11069;48.988;8.450;2023-05-17T12:43:33;2.35;;;1.55;;
21814;SDS011;11069;48.988;8.450;2023-05-17T12:46:07;3.63;;;2.10;;
21814;SDS011;11069;48.988;8.450;2023-05-17T12:48:35;2.40;;;1.65;;
21814;SDS011;11069;48.988;8.450;2023-05-17T12:51:08;2.92;;;1.80;;
21814;SDS011;11069;48.988;8.450;2023-05-17T12:53:35;2.13;;;1.70;;
21814;SDS011;11069;48.988;8.450;2023-05-17T12:56:01;3.17;;;1.73;;
21814;SDS011;11069;48.988;8.450;2023-05-17T12:58:27;2.35;;;1.60;;
21814;SDS011;11069;48.988;8.450;2023-05-17T13:00:57;2.35;;;1.70;;
21814;SDS011;11069;48.988;8.450;2023-05-17T13:03:23;2.90;;;1.95;;
21814;SDS011;11069;48.988;8.450;2023-05-17T13:06:00;4.75;;;2.45;;
21814;SDS011;11069;48.988;8.450;2023-05-17T13:08:26;3.00;;;2.10;;
21814;SDS011;11069;48.988;8.450;2023-05-17T13:10:52;4.20;;;1.70;;
21814;SDS011;11069;48.988;8.450;2023-05-17T13:13:18;3.58;;;2.00;;
21814;SDS011;11069;48.988;8.450;2023-05-17T13:15:45;2.35;;;1.75;;
21814;SDS011;11069;48.988;8.450;2023-05-17T13:18:12;3.38;;;2.10;;
21814;SDS011;11069;48.988;8.450;2023-05-17T13:20:42;2.83;;;1.70;;
21814;SDS011;11069;48.988;8.450;2023-05-17T13:23:08;3.13;;;1.95;;
21814;SDS011;11069;48.988;8.450;2023-05-17T13:25:34;3.22;;;2.05;;
21814;SDS011;11069;48.988;8.450;2023-05-17T13:28:00;3.28;;;2.08;;
21814;SDS011;11069;48.988;8.450;2023-05-17T13:30:26;4.30;;;1.80;;
21814;SDS011;11069;48.988;8.450;2023-05-17T13:32:53;2.95;;;2.00;;
21814;SDS011;11069;48.988;8.450;2023-05-17T13:35:20;5.65;;;2.42;;
21814;SDS011;11069;48.988;8.450;2023-05-17T13:37:46;2.30;;;1.85;;
21814;SDS011;11069;48.988;8.450;2023-05-17T13:40:15;3.28;;;2.30;;
21814;SDS011;11069;48.988;8.450;2023-05-17T13:42:41;3.28;;;2.10;;
21814;SDS011;11069;48.988;8.450;2023-05-17T13:45:07;4.80;;;2.38;;
21814;SDS011;11069;48.988;8.450;2023-05-17T13:47:36;2.92;;;2.05;;
21814;SDS011;11069;48.988;8.450;2023-05-17T13:50:02;3.22;;;2.10;;
21814;SDS011;11069;48.988;8.450;2023-05-17T13:52:28;5.15;;;1.83;;
21814;SDS011;11069;48.988;8.450;2023-05-17T13:54:55;3.33;;;2.08;;
21814;SDS011;11069;48.988;8.450;2023-05-17T13:57:21;2.78;;;1.90;;
21814;SDS011;11069;48.988;8.450;2023-05-17T13:59:47;4.00;;;2.13;;
21814;SDS011;11069;48.988;8.450;2023-05-17T14:02:13;3.03;;;1.90;;
21814;SDS011;11069;48.988;8.450;2023-05-17T14:04:39;2.28;;;1.77;;
21814;SDS011;11069;48.988;8.450;2023-05-17T14:07:05;2.42;;;1.77;;
21814;SDS011;11069;48.988;8.450;2023-05-17T14:09:32;2.90;;;2.08;;
21814;SDS011;11069;48.988;8.450;2023-05-17T14:11:59;3.28;;;2.03;;
21814;SDS011;11069;48.988;8.450;2023-05-17T14:14:26;2.47;;;1.85;;
21814;SDS011;11069;48.988;8.450;2023-05-17T14:16:53;2.03;;;1.67;;
21814;SDS011;11069;48.988;8.450;2023-05-17T14:19:19;2.75;;;1.73;;
21814;SDS011;11069;48.988;8.450;2023-05-17T14:21:45;2.72;;;1.73;;
21814;SDS011;11069;48.988;8.450;2023-05-17T14:24:11;2.92;;;2.00;;
21814;SDS011;11069;48.988;8.450;2023-05-17T14:26:37;2.47;;;2.00;;
21814;SDS011;11069;48.988;8.450;2023-05-17T14:29:04;2.42;;;1.63;;
21814;SDS011;11069;48.988;8.450;2023-05-17T14:31:30;2.05;;;1.80;;
21814;SDS011;11069;48.988;8.450;2023-05-17T14:33:56;3.50;;;1.77;;
21814;SDS011;11069;48.988;8.450;2023-05-17T14:36:23;2.50;;;1.75;;
21814;SDS011;11069;48.988;8.450;2023-05-17T14:38:50;3.25;;;1.65;;
21814;SDS011;11069;48.988;8.450;2023-05-17T14:41:15;1.98;;;1.48;;
21814;SDS011;11069;48.988;8.450;2023-05-17T14:43:42;2.92;;;2.00;;
21814;SDS011;11069;48.988;8.450;2023-05-17T14:46:08;3.03;;;2.00;;
21814;SDS011;11069;48.988;8.450;2023-05-17T14:48:34;2.45;;;1.90;;
21814;SDS011;11069;48.988;8.450;2023-05-17T14:51:00;3.13;;;2.10;;
21814;SDS011;11069;48.988;8.450;2023-05-17T14:53:27;7.70;;;2.17;;
21814;SDS011;11069;48.988;8.450;2023-05-17T14:55:54;2.90;;;1.92;;
21814;SDS011;11069;48.988;8.450;2023-05-17T14:58:20;3.55;;;2.20;;
21814;SDS011;11069;48.988;8.450;2023-05-17T15:00:46;3.28;;;1.48;;